sensor_id;sensor_type;location;lat;lon;timestamp;pressure;altitude;pressure_sealevel;temperature;humidity
43553;BME280;29153;42.696;23.218;2023-06-14T00:02:13;94201.38;;;16.01;100.00
43553;BME280;29153;42.696;23.218;2023-06-14T00:04:41;94197.71;;;16.00;100.00
43553;BME280;29153;42.696;23.218;2023-06-14T00:07:09;94190.39;;;15.94;100.00
43553;BME280;29153;42.696;23.218;2023-06-14T00:09:39;94191.09;;;15.88;100.00
43553;BME280;29153;42.696;23.218;2023-06-14T00:12:07;94194.80;;;15.90;100.00
43553;BME280;29153;42.696;23.218;2023-06-14T00:14:36;94194.00;;;15.81;100.00
43553;BME280;29153;42.696;23.218;2023-06-14T00:17:04;94193.30;;;15.78;100.00
43553;BME280;29153;42.696;23.218;2023-06-14T00:19:33;94195.64;;;15.79;100.00
43553;BME280;29153;42.696;23.218;2023-06-14T00:22:03;94190.84;;;15.79;100.00
43553;BME280;29153;42.696;23.218;2023-06-14T00:24:32;94192.91;;;15.73;100.00
43553;BME280;29153;42.696;23.218;2023-06-14T00:26:59;94188.02;;;15.75;100.00
43553;BME280;29153;42.696;23.218;2023-06-14T00:29:27;94183.86;;;15.72;100.00
43553;BME280;29153;42.696;23.218;2023-06-14T00:31:54;94182.22;;;15.65;100.00
43553;BME280;29153;42.696;23.218;2023-06-14T00:34:22;94179.00;;;15.65;100.00
43553;BME280;29153;42.696;23.218;2023-06-14T00:36:49;94181.98;;;15.72;100.00
43553;BME280;29153;42.696;23.218;2023-06-14T00:39:17;94181.59;;;15.76;100.00
43553;BME280;29153;42.696;23.218;2023-06-14T00:41:45;94177.43;;;15.73;100.00
43553;BME280;29153;42.696;23.218;2023-06-14T00:44:14;94169.17;;;15.72;100.00
43553;BME280;29153;42.696;23.218;2023-06-14T00:46:43;94171.05;;;15.71;100.00
43553;BME280;29153;42.696;23.218;2023-06-14T00:49:11;94170.27;;;15.71;100.00
43553;BME280;29153;42.696;23.218;2023-06-14T00:51:40;94176.09;;;15.73;100.00
43553;BME280;29153;42.696;23.218;2023-06-14T00:54:08;94177.58;;;15.68;100.00
43553;BME280;29153;42.696;23.218;2023-06-14T00:56:36;94175.84;;;15.63;100.00
43553;BME280;29153;42.696;23.218;2023-06-14T00:59:05;94163.98;;;15.67;100.00
43553;BME280;29153;42.696;23.218;2023-06-14T01:01:33;94171.39;;;15.70;100.00
43553;BME280;29153;42.696;23.218;2023-06-14T01:04:01;94171.39;;;15.70;100.00
43553;BME280;29153;42.696;23.218;2023-06-14T01:06:36;94173.02;;;15.60;100.00
43553;BME280;29153;42.696;23.218;2023-06-14T01:11:45;94166.80;;;15.70;100.00
43553;BME280;29153;42.696;23.218;2023-06-14T01:14:11;94169.56;;;15.68;100.00
43553;BME280;29153;42.696;23.218;2023-06-14T01:16:40;94167.78;;;15.74;100.00
43553;BME280;29153;42.696;23.218;2023-06-14T01:19:12;94091.06;;;15.32;100.00
43553;BME280;29153;42.696;23.218;2023-06-14T01:21:40;94165.27;;;15.78;100.00
43553;BME280;29153;42.696;23.218;2023-06-14T01:24:09;94168.63;;;15.81;100.00
43553;BME280;29153;42.696;23.218;2023-06-14T01:26:38;94165.86;;;15.75;100.00
43553;BME280;29153;42.696;23.218;2023-06-14T01:29:07;94167.59;;;15.71;100.00
43553;BME280;29153;42.696;23.218;2023-06-14T01:31:38;94157.55;;;15.76;100.00
43553;BME280;29153;42.696;23.218;2023-06-14T01:34:07;94161.65;;;15.82;100.00
43553;BME280;29153;42.696;23.218;2023-06-14T01:36:35;94157.70;;;15.80;100.00
43553;BME280;29153;42.696;23.218;2023-06-14T01:39:04;94160.62;;;15.81;100.00
43553;BME280;29153;42.696;23.218;2023-06-14T01:41:34;94161.46;;;15.70;100.00
43553;BME280;29153;42.696;23.218;2023-06-14T01:44:03;94162.20;;;15.82;100.00
43553;BME280;29153;42.696;23.218;2023-06-14T01:46:30;94165.72;;;15.88;100.00
43553;BME280;29153;42.696;23.218;2023-06-14T01:48:58;94167.20;;;15.83;100.00
43553;BME280;29153;42.696;23.218;2023-06-14T01:51:25;94121.11;;;15.63;100.00
43553;BME280;29153;42.696;23.218;2023-06-14T01:53:53;94174.45;;;15.91;100.00
43553;BME280;29153;42.696;23.218;2023-06-14T01:56:21;94173.13;;;15.91;100.00
43553;BME280;29153;42.696;23.218;2023-06-14T01:58:49;94174.12;;;15.84;100.00
43553;BME280;29153;42.696;23.218;2023-06-14T02:01:19;94176.49;;;15.94;100.00
43553;BME280;29153;42.696;23.218;2023-06-14T02:03:48;94183.08;;;15.97;100.00
43553;BME280;29153;42.696;23.218;2023-06-14T02:06:18;94184.81;;;15.93;100.00
43553;BME280;29153;42.696;23.218;2023-06-14T02:08:45;94186.39;;;15.94;100.00
43553;BME280;29153;42.696;23.218;2023-06-14T02:11:14;94185.69;;;16.00;100.00
43553;BME280;29153;42.696;23.218;2023-06-14T02:13:42;94190.94;;;16.02;100.00
43553;BME280;29153;42.696;23.218;2023-06-14T02:16:10;94197.86;;;16.03;100.00
43553;BME280;29153;42.696;23.218;2023-06-14T02:18:37;94193.77;;;15.97;100.00
43553;BME280;29153;42.696;23.218;2023-06-14T02:21:06;94202.51;;;16.00;100.00
43553;BME280;29153;42.696;23.218;2023-06-14T02:23:36;94196.19;;;15.87;100.00
43553;BME280;29153;42.696;23.218;2023-06-14T02:26:03;94199.98;;;15.95;100.00
43553;BME280;29153;42.696;23.218;2023-06-14T02:28:31;94202.42;;;15.94;100.00
43553;BME280;29153;42.696;23.218;2023-06-14T02:31:01;94206.73;;;15.92;100.00
43553;BME280;29153;42.696;23.218;2023-06-14T02:33:31;94199.66;;;15.97;100.00
43553;BME280;29153;42.696;23.218;2023-06-14T02:35:58;94204.45;;;15.97;100.00
43553;BME280;29153;42.696;23.218;2023-06-14T02:38:26;94196.77;;;15.87;100.00
43553;BME280;29153;42.696;23.218;2023-06-14T02:40:53;94200.20;;;15.96;100.00
43553;BME280;29153;42.696;23.218;2023-06-14T02:43:21;94196.28;;;15.93;100.00
43553;BME280;29153;42.696;23.218;2023-06-14T02:45:48;94191.73;;;15.94;100.00
43553;BME280;29153;42.696;23.218;2023-06-14T02:48:17;94196.28;;;15.93;100.00
43553;BME280;29153;42.696;23.218;2023-06-14T02:50:44;94188.75;;;15.87;100.00
43553;BME280;29153;42.696;23.218;2023-06-14T02:53:12;94185.69;;;16.00;100.00
43553;BME280;29153;42.696;23.218;2023-06-14T02:55:39;94186.23;;;15.99;100.00
43553;BME280;29153;42.696;23.218;2023-06-14T02:58:07;94188.18;;;15.96;100.00
43553;BME280;29153;42.696;23.218;2023-06-14T03:00:34;94191.73;;;15.85;100.00
43553;BME280;29153;42.696;23.218;2023-06-14T03:03:02;94198.64;;;15.78;100.00
43553;BME280;29153;42.696;23.218;2023-06-14T03:05:31;94197.36;;;15.67;100.00
43553;BME280;29153;42.696;23.218;2023-06-14T03:07:59;94199.42;;;15.70;100.00
43553;BME280;29153;42.696;23.218;2023-06-14T03:10:27;94199.19;;;15.77;100.00
43553;BME280;29153;42.696;23.218;2023-06-14T03:12:55;94205.48;;;15.90;100.00
43553;BME280;29153;42.696;23.218;2023-06-14T03:15:24;94210.88;;;15.87;100.00
43553;BME280;29153;42.696;23.218;2023-06-14T03:17:51;94183.86;;;15.72;100.00
43553;BME280;29153;42.696;23.218;2023-06-14T03:20:19;94213.55;;;15.87;100.00
43553;BME280;29153;42.696;23.218;2023-06-14T03:22:46;94216.87;;;15.93;100.00
43553;BME280;29153;42.696;23.218;2023-06-14T03:25:14;94222.77;;;16.01;100.00
43553;BME280;29153;42.696;23.218;2023-06-14T03:27:42;94224.03;;;15.95;100.00
43553;BME280;29153;42.696;23.218;2023-06-14T03:30:09;94222.20;;;15.93;100.00
43553;BME280;29153;42.696;23.218;2023-06-14T03:32:37;94227.41;;;15.98;100.00
43553;BME280;29153;42.696;23.218;2023-06-14T03:35:05;94227.09;;;16.00;100.00
43553;BME280;29153;42.696;23.218;2023-06-14T03:37:32;94227.25;;;16.03;100.00
43553;BME280;29153;42.696;23.218;2023-06-14T03:39:59;94227.16;;;15.97;100.00
43553;BME280;29153;42.696;23.218;2023-06-14T03:42:28;94224.25;;;16.05;100.00
43553;BME280;29153;42.696;23.218;2023-06-14T03:44:56;94229.92;;;16.12;100.00
43553;BME280;29153;42.696;23.218;2023-06-14T03:47:23;94222.52;;;16.17;100.00
43553;BME280;29153;42.696;23.218;2023-06-14T03:49:51;94224.48;;;16.14;100.00
43553;BME280;29153;42.696;23.218;2023-06-14T03:52:18;94220.23;;;16.13;100.00
43553;BME280;29153;42.696;23.218;2023-06-14T03:54:48;94223.55;;;16.10;100.00
43553;BME280;29153;42.696;23.218;2023-06-14T03:57:16;94226.77;;;16.18;100.00
43553;BME280;29153;42.696;23.218;2023-06-14T03:59:43;94225.52;;;16.24;100.00
43553;BME280;29153;42.696;23.218;2023-06-14T04:02:12;94227.70;;;16.22;100.00
43553;BME280;29153;42.696;23.218;2023-06-14T04:04:41;94228.19;;;16.33;100.00
43553;BME280;29153;42.696;23.218;2023-06-14T04:07:12;94228.03;;;16.38;100.00
43553;BME280;29153;42.696;23.218;2023-06-14T04:09:40;94229.38;;;16.29;100.00
43553;BME280;29153;42.696;23.218;2023-06-14T04:12:10;94232.98;;;16.42;100.00
43553;BME280;29153;42.696;23.218;2023-06-14T04:14:43;94228.16;;;16.50;100.00
43553;BME280;29153;42.696;23.218;2023-06-14T04:17:07;94226.60;;;16.58;100.00
43553;BME280;29153;42.696;23.218;2023-06-14T04:19:35;94224.80;;;16.64;100.00
43553;BME280;29153;42.696;23.218;2023-06-14T04:22:03;94228.86;;;16.70;100.00
43553;BME280;29153;42.696;23.218;2023-06-14T04:24:30;94223.41;;;16.73;100.00
43553;BME280;29153;42.696;23.218;2023-06-14T04:27:01;94225.06;;;16.80;100.00
43553;BME280;29153;42.696;23.218;2023-06-14T04:29:29;94228.50;;;16.89;100.00
43553;BME280;29153;42.696;23.218;2023-06-14T04:31:58;94228.13;;;16.99;100.00
43553;BME280;29153;42.696;23.218;2023-06-14T04:34:27;94234.38;;;16.97;100.00
43553;BME280;29153;42.696;23.218;2023-06-14T04:36:59;94236.59;;;16.87;100.00
43553;BME280;29153;42.696;23.218;2023-06-14T04:39:27;94237.05;;;16.97;100.00
43553;BME280;29153;42.696;23.218;2023-06-14T04:41:55;94234.66;;;16.81;100.00
43553;BME280;29153;42.696;23.218;2023-06-14T04:44:26;94231.56;;;16.94;100.00
43553;BME280;29153;42.696;23.218;2023-06-14T04:46:56;94225.73;;;17.15;100.00
43553;BME280;29153;42.696;23.218;2023-06-14T04:49:25;94229.72;;;17.23;100.00
43553;BME280;29153;42.696;23.218;2023-06-14T04:51:54;94235.10;;;17.29;100.00
43553;BME280;29153;42.696;23.218;2023-06-14T04:54:23;94240.55;;;17.42;100.00
43553;BME280;29153;42.696;23.218;2023-06-14T04:56:58;94251.64;;;17.32;100.00
43553;BME280;29153;42.696;23.218;2023-06-14T04:59:27;94243.95;;;17.45;100.00
43553;BME280;29153;42.696;23.218;2023-06-14T05:01:56;94246.83;;;17.46;100.00
43553;BME280;29153;42.696;23.218;2023-06-14T05:04:24;94248.45;;;17.61;100.00
43553;BME280;29153;42.696;23.218;2023-06-14T05:06:53;94246.13;;;17.81;100.00
43553;BME280;29153;42.696;23.218;2023-06-14T05:09:24;94253.19;;;17.85;100.00
43553;BME280;29153;42.696;23.218;2023-06-14T05:11:51;94254.16;;;17.81;100.00
43553;BME280;29153;42.696;23.218;2023-06-14T05:14:19;94258.10;;;17.83;100.00
43553;BME280;29153;42.696;23.218;2023-06-14T05:16:48;94259.99;;;17.83;100.00
43553;BME280;29153;42.696;23.218;2023-06-14T05:19:16;94261.41;;;17.80;100.00
43553;BME280;29153;42.696;23.218;2023-06-14T05:21:44;94267.98;;;17.77;100.00
43553;BME280;29153;42.696;23.218;2023-06-14T05:24:13;94269.36;;;17.68;100.00
43553;BME280;29153;42.696;23.218;2023-06-14T05:26:40;94275.33;;;17.73;100.00
43553;BME280;29153;42.696;23.218;2023-06-14T05:29:08;94280.31;;;17.69;100.00
43553;BME280;29153;42.696;23.218;2023-06-14T05:31:36;94283.92;;;17.73;100.00
43553;BME280;29153;42.696;23.218;2023-06-14T05:34:04;94284.23;;;17.86;100.00
43553;BME280;29153;42.696;23.218;2023-06-14T05:36:32;94280.91;;;18.04;100.00
43553;BME280;29153;42.696;23.218;2023-06-14T05:39:01;94288.59;;;18.20;100.00
43553;BME280;29153;42.696;23.218;2023-06-14T05:41:38;94287.67;;;18.37;100.00
43553;BME280;29153;42.696;23.218;2023-06-14T05:44:24;94293.20;;;18.46;100.00
43553;BME280;29153;42.696;23.218;2023-06-14T05:46:53;94288.08;;;18.47;100.00
43553;BME280;29153;42.696;23.218;2023-06-14T05:49:21;94295.53;;;18.42;100.00
43553;BME280;29153;42.696;23.218;2023-06-14T05:51:48;94290.40;;;18.43;100.00
43553;BME280;29153;42.696;23.218;2023-06-14T05:54:16;94293.56;;;18.51;100.00
43553;BME280;29153;42.696;23.218;2023-06-14T05:56:43;94290.64;;;18.44;100.00
43553;BME280;29153;42.696;23.218;2023-06-14T05:59:11;94301.94;;;18.29;100.00
43553;BME280;29153;42.696;23.218;2023-06-14T06:01:38;94302.41;;;18.31;100.00
43553;BME280;29153;42.696;23.218;2023-06-14T06:04:08;94302.78;;;18.20;100.00
43553;BME280;29153;42.696;23.218;2023-06-14T06:06:35;94298.81;;;18.27;100.00
43553;BME280;29153;42.696;23.218;2023-06-14T06:09:03;94297.05;;;18.31;100.00
43553;BME280;29153;42.696;23.218;2023-06-14T06:11:32;94297.55;;;18.24;100.00
43553;BME280;29153;42.696;23.218;2023-06-14T06:13:59;94299.30;;;17.99;100.00
43553;BME280;29153;42.696;23.218;2023-06-14T06:16:28;94298.82;;;17.97;100.00
43553;BME280;29153;42.696;23.218;2023-06-14T06:18:56;94303.14;;;18.04;100.00
43553;BME280;29153;42.696;23.218;2023-06-14T06:21:25;94307.97;;;18.11;100.00
43553;BME280;29153;42.696;23.218;2023-06-14T06:23:52;94305.36;;;18.23;100.00
43553;BME280;29153;42.696;23.218;2023-06-14T06:26:22;94309.54;;;18.27;100.00
43553;BME280;29153;42.696;23.218;2023-06-14T06:28:50;94307.83;;;18.22;100.00
43553;BME280;29153;42.696;23.218;2023-06-14T06:31:19;94308.20;;;18.27;100.00
43553;BME280;29153;42.696;23.218;2023-06-14T06:33:48;94313.22;;;18.28;100.00
43553;BME280;29153;42.696;23.218;2023-06-14T06:36:16;94306.64;;;18.32;100.00
43553;BME280;29153;42.696;23.218;2023-06-14T06:38:44;94303.53;;;18.36;100.00
43553;BME280;29153;42.696;23.218;2023-06-14T06:41:11;94302.47;;;18.22;100.00
43553;BME280;29153;42.696;23.218;2023-06-14T06:43:38;94309.30;;;18.26;100.00
43553;BME280;29153;42.696;23.218;2023-06-14T06:46:06;94306.45;;;18.37;100.00
43553;BME280;29153;42.696;23.218;2023-06-14T06:48:35;94305.48;;;18.62;100.00
43553;BME280;29153;42.696;23.218;2023-06-14T06:51:03;94305.53;;;18.74;100.00
43553;BME280;29153;42.696;23.218;2023-06-14T06:53:31;94303.16;;;18.93;100.00
43553;BME280;29153;42.696;23.218;2023-06-14T06:55:59;94304.81;;;19.25;100.00
43553;BME280;29153;42.696;23.218;2023-06-14T06:58:27;94316.30;;;19.52;100.00
43553;BME280;29153;42.696;23.218;2023-06-14T07:00:56;94318.98;;;19.52;99.03
43553;BME280;29153;42.696;23.218;2023-06-14T07:03:23;94314.73;;;19.81;99.48
43553;BME280;29153;42.696;23.218;2023-06-14T07:05:51;94312.05;;;19.81;100.00
43553;BME280;29153;42.696;23.218;2023-06-14T07:08:19;94315.19;;;20.08;99.78
43553;BME280;29153;42.696;23.218;2023-06-14T07:10:46;94316.64;;;20.23;94.61
43553;BME280;29153;42.696;23.218;2023-06-14T07:13:14;94307.78;;;20.35;96.98
43553;BME280;29153;42.696;23.218;2023-06-14T07:15:43;94311.92;;;20.32;96.75
43553;BME280;29153;42.696;23.218;2023-06-14T07:18:10;94308.77;;;20.24;96.39
43553;BME280;29153;42.696;23.218;2023-06-14T07:20:38;94304.97;;;20.25;97.51
43553;BME280;29153;42.696;23.218;2023-06-14T07:23:06;94305.75;;;20.38;100.00
43553;BME280;29153;42.696;23.218;2023-06-14T07:25:34;94303.39;;;20.42;100.00
43553;BME280;29153;42.696;23.218;2023-06-14T07:28:01;94312.81;;;20.42;93.52
43553;BME280;29153;42.696;23.218;2023-06-14T07:30:30;94310.14;;;20.18;98.23
43553;BME280;29153;42.696;23.218;2023-06-14T07:32:58;94310.90;;;20.25;100.00
43553;BME280;29153;42.696;23.218;2023-06-14T07:35:26;94316.73;;;20.21;93.02
43553;BME280;29153;42.696;23.218;2023-06-14T07:37:54;94316.74;;;20.27;92.71
43553;BME280;29153;42.696;23.218;2023-06-14T07:40:21;94309.10;;;20.41;96.97
43553;BME280;29153;42.696;23.218;2023-06-14T07:42:49;94314.97;;;20.19;93.23
43553;BME280;29153;42.696;23.218;2023-06-14T07:45:18;94309.92;;;20.23;95.90
43553;BME280;29153;42.696;23.218;2023-06-14T07:47:46;94312.28;;;20.31;95.25
43553;BME280;29153;42.696;23.218;2023-06-14T07:50:13;94321.80;;;20.34;94.44
43553;BME280;29153;42.696;23.218;2023-06-14T07:52:41;94316.38;;;20.47;96.27
43553;BME280;29153;42.696;23.218;2023-06-14T07:55:09;94313.59;;;20.43;98.84
43553;BME280;29153;42.696;23.218;2023-06-14T07:57:37;94320.42;;;20.86;96.86
43553;BME280;29153;42.696;23.218;2023-06-14T08:00:06;94332.53;;;20.86;91.12
43553;BME280;29153;42.696;23.218;2023-06-14T08:02:33;94328.41;;;20.83;91.98
43553;BME280;29153;42.696;23.218;2023-06-14T08:05:01;94332.71;;;21.00;91.86
43553;BME280;29153;42.696;23.218;2023-06-14T08:07:28;94345.47;;;21.09;89.48
43553;BME280;29153;42.696;23.218;2023-06-14T08:09:58;94336.34;;;21.19;95.25
43553;BME280;29153;42.696;23.218;2023-06-14T08:12:25;94344.27;;;21.28;92.23
43553;BME280;29153;42.696;23.218;2023-06-14T08:14:53;94353.77;;;21.16;92.39
43553;BME280;29153;42.696;23.218;2023-06-14T08:17:20;94350.91;;;21.30;90.69
43553;BME280;29153;42.696;23.218;2023-06-14T08:19:48;94354.78;;;21.39;89.57
43553;BME280;29153;42.696;23.218;2023-06-14T08:22:17;94360.98;;;21.55;88.73
43553;BME280;29153;42.696;23.218;2023-06-14T08:34:51;94358.97;;;22.05;83.84
43553;BME280;29153;42.696;23.218;2023-06-14T08:37:19;94356.82;;;22.81;85.60
43553;BME280;29153;42.696;23.218;2023-06-14T08:39:50;94351.86;;;23.21;81.77
43553;BME280;29153;42.696;23.218;2023-06-14T08:42:19;94354.66;;;23.67;80.20
43553;BME280;29153;42.696;23.218;2023-06-14T08:44:48;94348.55;;;23.70;75.50
43553;BME280;29153;42.696;23.218;2023-06-14T08:47:16;94344.63;;;24.13;80.56
43553;BME280;29153;42.696;23.218;2023-06-14T08:49:46;94335.16;;;24.39;76.89
43553;BME280;29153;42.696;23.218;2023-06-14T08:52:17;94336.90;;;24.51;78.77
43553;BME280;29153;42.696;23.218;2023-06-14T08:54:47;94331.48;;;24.15;80.86
43553;BME280;29153;42.696;23.218;2023-06-14T08:57:15;94333.62;;;24.51;80.07
43553;BME280;29153;42.696;23.218;2023-06-14T08:59:47;94343.11;;;23.92;72.43
43553;BME280;29153;42.696;23.218;2023-06-14T09:02:19;94341.02;;;23.59;72.90
43553;BME280;29153;42.696;23.218;2023-06-14T09:04:48;94342.44;;;23.53;74.90
43553;BME280;29153;42.696;23.218;2023-06-14T09:07:19;94343.81;;;23.34;74.42
43553;BME280;29153;42.696;23.218;2023-06-14T09:09:47;94334.69;;;23.62;78.74
43553;BME280;29153;42.696;23.218;2023-06-14T09:12:15;94332.02;;;24.11;78.40
43553;BME280;29153;42.696;23.218;2023-06-14T09:14:43;94320.13;;;24.15;79.51
43553;BME280;29153;42.696;23.218;2023-06-14T09:17:13;94326.20;;;23.86;76.90
43553;BME280;29153;42.696;23.218;2023-06-14T09:19:40;94334.76;;;23.36;71.28
43553;BME280;29153;42.696;23.218;2023-06-14T09:22:08;94328.09;;;23.30;78.15
43553;BME280;29153;42.696;23.218;2023-06-14T09:24:37;94321.97;;;23.33;74.74
43553;BME280;29153;42.696;23.218;2023-06-14T09:27:05;94319.14;;;23.26;79.28
43553;BME280;29153;42.696;23.218;2023-06-14T09:29:32;94317.20;;;23.46;79.48
43553;BME280;29153;42.696;23.218;2023-06-14T09:32:00;94325.01;;;23.61;74.24
43553;BME280;29153;42.696;23.218;2023-06-14T09:34:27;94323.33;;;23.52;71.01
43553;BME280;29153;42.696;23.218;2023-06-14T09:36:55;94317.47;;;23.83;76.17
43553;BME280;29153;42.696;23.218;2023-06-14T09:39:22;94317.38;;;24.25;79.15
43553;BME280;29153;42.696;23.218;2023-06-14T09:41:51;94320.13;;;24.15;74.17
43553;BME280;29153;42.696;23.218;2023-06-14T09:44:19;94321.34;;;23.95;68.03
43553;BME280;29153;42.696;23.218;2023-06-14T09:46:48;94317.25;;;23.82;71.43
43553;BME280;29153;42.696;23.218;2023-06-14T09:49:17;94312.46;;;23.85;72.28
43553;BME280;29153;42.696;23.218;2023-06-14T09:51:45;94310.38;;;23.88;72.27
43553;BME280;29153;42.696;23.218;2023-06-14T09:54:20;94293.53;;;23.62;83.79
43553;BME280;29153;42.696;23.218;2023-06-14T09:56:48;94295.23;;;23.83;79.21
43553;BME280;29153;42.696;23.218;2023-06-14T09:59:19;94296.86;;;24.37;71.80
43553;BME280;29153;42.696;23.218;2023-06-14T10:01:49;94298.12;;;24.30;74.91
43553;BME280;29153;42.696;23.218;2023-06-14T10:04:18;94301.52;;;24.53;77.26
43553;BME280;29153;42.696;23.218;2023-06-14T10:06:47;94312.14;;;24.52;70.88
43553;BME280;29153;42.696;23.218;2023-06-14T10:09:18;94303.55;;;24.60;71.66
43553;BME280;29153;42.696;23.218;2023-06-14T10:11:48;94302.66;;;24.82;67.63
43553;BME280;29153;42.696;23.218;2023-06-14T10:14:16;94290.09;;;24.97;76.85
43553;BME280;29153;42.696;23.218;2023-06-14T10:17:08;94287.42;;;25.00;72.27
43553;BME280;29153;42.696;23.218;2023-06-14T10:19:48;94286.72;;;25.23;67.57
43553;BME280;29153;42.696;23.218;2023-06-14T10:22:29;94285.09;;;25.15;68.85
43553;BME280;29153;42.696;23.218;2023-06-14T10:24:51;94279.38;;;25.24;66.64
43553;BME280;29153;42.696;23.218;2023-06-14T10:27:19;94272.83;;;25.49;73.44
43553;BME280;29153;42.696;23.218;2023-06-14T10:32:26;94264.25;;;25.23;69.32
43553;BME280;29153;42.696;23.218;2023-06-14T10:35:00;94199.13;;;24.49;64.97
43553;BME280;29153;42.696;23.218;2023-06-14T10:37:28;94263.52;;;24.46;64.52
43553;BME280;29153;42.696;23.218;2023-06-14T10:39:55;94264.97;;;24.40;67.80
43553;BME280;29153;42.696;23.218;2023-06-14T10:42:31;94265.92;;;24.68;69.78
43553;BME280;29153;42.696;23.218;2023-06-14T10:44:56;94262.48;;;24.41;66.52
43553;BME280;29153;42.696;23.218;2023-06-14T10:47:35;94263.47;;;24.03;68.88
43553;BME280;29153;42.696;23.218;2023-06-14T10:50:06;94257.05;;;23.88;74.95
43553;BME280;29153;42.696;23.218;2023-06-14T10:52:39;94256.08;;;23.87;69.91
43553;BME280;29153;42.696;23.218;2023-06-14T10:55:09;94243.94;;;23.77;74.85
43553;BME280;29153;42.696;23.218;2023-06-14T10:57:45;94248.39;;;24.28;71.73
43553;BME280;29153;42.696;23.218;2023-06-14T11:00:14;94244.29;;;24.71;69.43
43553;BME280;29153;42.696;23.218;2023-06-14T11:05:21;94236.35;;;25.22;67.46
43553;BME280;29153;42.696;23.218;2023-06-14T11:10:51;94237.20;;;25.10;67.84
43553;BME280;29153;42.696;23.218;2023-06-14T11:13:18;94225.78;;;25.10;70.69
43553;BME280;29153;42.696;23.218;2023-06-14T11:15:48;94222.10;;;25.12;65.95
43553;BME280;29153;42.696;23.218;2023-06-14T11:18:17;94220.14;;;25.29;62.19
43553;BME280;29153;42.696;23.218;2023-06-14T11:20:46;94216.96;;;25.41;65.21
43553;BME280;29153;42.696;23.218;2023-06-14T11:23:14;94219.61;;;25.77;68.19
43553;BME280;29153;42.696;23.218;2023-06-14T11:25:42;94228.89;;;25.76;61.49
43553;BME280;29153;42.696;23.218;2023-06-14T11:28:09;94223.59;;;25.47;63.57
43553;BME280;29153;42.696;23.218;2023-06-14T11:30:37;94227.66;;;25.47;61.65
43553;BME280;29153;42.696;23.218;2023-06-14T11:33:04;94217.69;;;25.37;68.43
43553;BME280;29153;42.696;23.218;2023-06-14T11:35:34;94225.93;;;25.08;67.52
43553;BME280;29153;42.696;23.218;2023-06-14T11:38:02;94221.91;;;24.78;64.70
43553;BME280;29153;42.696;23.218;2023-06-14T11:40:30;94216.45;;;24.74;67.30
43553;BME280;29153;42.696;23.218;2023-06-14T11:43:01;94207.64;;;24.98;70.98
43553;BME280;29153;42.696;23.218;2023-06-14T11:45:30;94213.79;;;25.11;66.54
43553;BME280;29153;42.696;23.218;2023-06-14T11:47:59;94204.33;;;25.15;65.17
43553;BME280;29153;42.696;23.218;2023-06-14T11:50:27;94201.50;;;25.04;63.43
43553;BME280;29153;42.696;23.218;2023-06-14T11:52:59;94204.09;;;24.90;66.42
43553;BME280;29153;42.696;23.218;2023-06-14T11:55:29;94193.56;;;24.68;66.79
43553;BME280;29153;42.696;23.218;2023-06-14T11:57:56;94193.36;;;24.51;71.22
43553;BME280;29153;42.696;23.218;2023-06-14T12:00:26;94195.63;;;24.82;67.87
43553;BME280;29153;42.696;23.218;2023-06-14T12:02:57;94191.80;;;25.03;66.30
43553;BME280;29153;42.696;23.218;2023-06-14T12:05:25;94180.90;;;24.79;67.22
43553;BME280;29153;42.696;23.218;2023-06-14T12:08:01;94182.56;;;24.54;66.64
43553;BME280;29153;42.696;23.218;2023-06-14T12:10:29;94176.08;;;24.45;66.61
43553;BME280;29153;42.696;23.218;2023-06-14T12:12:59;94162.44;;;24.72;65.83
43553;BME280;29153;42.696;23.218;2023-06-14T12:15:30;94157.66;;;24.95;69.03
43553;BME280;29153;42.696;23.218;2023-06-14T12:17:58;94168.80;;;25.27;63.69
43553;BME280;29153;42.696;23.218;2023-06-14T12:20:30;94169.34;;;25.23;64.65
43553;BME280;29153;42.696;23.218;2023-06-14T12:23:03;94159.16;;;25.09;66.18
43553;BME280;29153;42.696;23.218;2023-06-14T12:25:35;94158.02;;;24.90;70.40
43553;BME280;29153;42.696;23.218;2023-06-14T12:28:07;94160.82;;;24.84;64.80
43553;BME280;29153;42.696;23.218;2023-06-14T12:30:36;94159.57;;;25.11;61.17
43553;BME280;29153;42.696;23.218;2023-06-14T12:33:05;94161.73;;;25.15;62.42
43553;BME280;29153;42.696;23.218;2023-06-14T12:35:33;94159.12;;;25.29;63.11
43553;BME280;29153;42.696;23.218;2023-06-14T12:38:01;94152.33;;;25.50;58.36
43553;BME280;29153;42.696;23.218;2023-06-14T12:40:30;94152.96;;;25.80;59.19
43553;BME280;29153;42.696;23.218;2023-06-14T12:42:58;94138.20;;;26.15;61.99
43553;BME280;29153;42.696;23.218;2023-06-14T12:45:25;94133.64;;;26.26;61.18
43553;BME280;29153;42.696;23.218;2023-06-14T12:47:53;94131.94;;;26.42;63.55
43553;BME280;29153;42.696;23.218;2023-06-14T12:50:20;94135.58;;;26.30;59.02
43553;BME280;29153;42.696;23.218;2023-06-14T12:52:50;94130.05;;;25.77;59.70
43553;BME280;29153;42.696;23.218;2023-06-14T12:55:17;94127.44;;;25.95;58.36
43553;BME280;29153;42.696;23.218;2023-06-14T12:57:46;94114.89;;;26.07;61.46
43553;BME280;29153;42.696;23.218;2023-06-14T13:00:15;94115.92;;;25.81;58.95
43553;BME280;29153;42.696;23.218;2023-06-14T13:02:44;94111.02;;;25.67;60.86
43553;BME280;29153;42.696;23.218;2023-06-14T13:05:11;94120.06;;;25.37;62.78
43553;BME280;29153;42.696;23.218;2023-06-14T13:07:38;94128.34;;;25.28;63.29
43553;BME280;29153;42.696;23.218;2023-06-14T13:10:06;94129.12;;;25.08;63.23
43553;BME280;29153;42.696;23.218;2023-06-14T13:12:34;94130.41;;;24.98;63.91
43553;BME280;29153;42.696;23.218;2023-06-14T13:15:01;94126.08;;;24.89;64.22